Current Weather Conditions: station 42390

sailwx.info

Wind from 060 at 13 knots

Air temperature 29.4° C
Dewpoint 25.0° C

Last reported at 2016-Aug-30 22:30 UTC.
Time now 2016-Aug-31 00:31 UTC

Location: N 26°06' W 094°54'.
View on Google Maps.

See reports from other nearby stations

  
Tides and Currents Weather Stations Pressure Air Temp Water Temp Dewpoint Dewpoint Depression Visibility Wind Speed Wind Dir Waves Ship Positions
date/time (UTC)wind fromknots sea level pressurealtimeterstation pressurevisibilityair tempwater tempwave heightnotes
2016-Aug-30 22:30 060 13 29.4
2016-Aug-30 21:30 070 15 29.4
2016-Aug-30 19:30 070 13 29.4
2016-Aug-30 14:30 080 5 29.4
2016-Aug-30 09:30 080 9 28.9
2016-Aug-30 08:30 080 9 28.9
2016-Aug-30 06:30 070 9 29.4
2016-Aug-30 04:30 060 7 29.4
2016-Aug-30 03:30 050 5 30.0
2016-Aug-30 02:30 070 5 29.4
2016-Aug-30 01:30 080 7 29.4
2016-Aug-30 00:30 080 7 29.4
2016-Aug-29 23:30 060 5 30.0
2016-Aug-29 22:30 030 3 29.4
2016-Aug-29 20:30 030 5 29.4
2016-Aug-29 19:30 050 9 29.4
2016-Aug-29 10:30 060 1 28.9
2016-Aug-29 08:30 140 3 28.9
2016-Aug-29 07:30 120 3 28.9
2016-Aug-29 06:30 090 1 28.9
2016-Aug-29 04:30 080 5 28.9
2016-Aug-29 02:30 030 5 28.9
2016-Aug-29 00:30 340 33 28.9